createdAt,value
2023-03-03T00:01:47.047Z,59.27
2023-03-03T00:04:14.777Z,60.23
2023-03-03T00:06:42.398Z,60.70
2023-03-03T00:09:09.956Z,66.83
2023-03-03T00:11:37.561Z,75.40
2023-03-03T00:14:20.226Z,68.07
2023-03-03T00:16:49.160Z,71.53
2023-03-03T00:19:20.242Z,70.17
2023-03-03T00:21:50.065Z,68.83
2023-03-03T00:24:23.680Z,64.83
2023-03-03T00:26:52.875Z,64.53
2023-03-03T00:29:30.691Z,64.73
2023-03-03T00:32:11.125Z,64.70
2023-03-03T00:34:39.083Z,64.13
2023-03-03T00:37:24.487Z,65.17
2023-03-03T00:39:52.079Z,64.07
2023-03-03T00:42:20.381Z,61.60
2023-03-03T00:44:49.970Z,61.00
2023-03-03T00:47:31.036Z,64.27
2023-03-03T00:50:42.695Z,65.87
2023-03-03T00:53:14.626Z,64.30
2023-03-03T00:55:42.262Z,65.20
2023-03-03T00:58:10.030Z,69.97
2023-03-03T01:00:40.136Z,78.87
2023-03-03T01:03:10.071Z,75.80
2023-03-03T01:05:37.994Z,73.20
2023-03-03T01:08:06.376Z,80.30
2023-03-03T01:10:36.931Z,80.27
2023-03-03T01:13:05.607Z,76.50
2023-03-03T01:15:33.335Z,77.20
2023-03-03T01:18:02.432Z,87.30
2023-03-03T01:20:30.077Z,81.53
2023-03-03T01:22:57.767Z,79.63
2023-03-03T01:25:25.618Z,83.33
2023-03-03T01:27:53.331Z,81.97
2023-03-03T01:30:21.030Z,85.93
2023-03-03T01:32:48.697Z,87.47
2023-03-03T01:35:17.909Z,101.90
2023-03-03T01:37:45.567Z,94.50
2023-03-03T01:40:16.509Z,91.40
2023-03-03T01:42:44.266Z,97.03
2023-03-03T01:45:16.889Z,97.23
2023-03-03T01:47:49.716Z,97.40
2023-03-03T01:50:27.636Z,95.87
2023-03-03T01:52:56.472Z,97.13
2023-03-03T01:55:29.445Z,93.63
2023-03-03T01:58:01.723Z,86.90
2023-03-03T02:00:31.225Z,83.37
2023-03-03T02:02:59.158Z,79.37
2023-03-03T02:05:29.090Z,75.93
2023-03-03T02:07:56.813Z,80.57
2023-03-03T02:10:24.906Z,81.87
2023-03-03T02:12:54.224Z,79.40
2023-03-03T02:15:23.966Z,84.40
2023-03-03T02:17:54.577Z,83.60
2023-03-03T02:20:37.040Z,90.47
2023-03-03T02:23:12.338Z,88.27
2023-03-03T02:25:50.549Z,88.93
2023-03-03T02:28:19.623Z,94.20
2023-03-03T02:30:47.842Z,99.87
2023-03-03T02:33:15.684Z,103.23
2023-03-03T02:35:43.798Z,103.00
2023-03-03T02:38:20.419Z,113.10
2023-03-03T02:41:00.236Z,111.40
2023-03-03T02:43:37.453Z,111.77
2023-03-03T02:46:05.283Z,109.93
2023-03-03T02:48:32.900Z,111.80
2023-03-03T02:51:00.496Z,116.60
2023-03-03T02:53:28.496Z,106.73
2023-03-03T02:55:56.127Z,110.97
2023-03-03T02:58:23.697Z,112.17
2023-03-03T03:00:52.888Z,113.40
2023-03-03T03:03:20.757Z,117.77
2023-03-03T03:05:48.347Z,116.17
2023-03-03T03:08:16.152Z,113.20
2023-03-03T03:10:43.885Z,109.07
2023-03-03T03:13:11.938Z,105.70
2023-03-03T03:15:40.592Z,108.67
2023-03-03T03:18:09.612Z,99.43
2023-03-03T03:20:37.808Z,97.13
2023-03-03T03:23:05.549Z,100.50
2023-03-03T03:25:33.209Z,109.27
2023-03-03T03:28:00.887Z,119.33
2023-03-03T03:30:28.734Z,130.30
2023-03-03T03:32:56.411Z,137.23
2023-03-03T03:35:25.429Z,145.80
2023-03-03T03:37:53.126Z,157.97
2023-03-03T03:40:20.762Z,185.23
2023-03-03T03:42:48.369Z,196.27
2023-03-03T03:45:15.996Z,218.90
2023-03-03T03:47:43.697Z,224.63
2023-03-03T03:50:11.977Z,251.03
2023-03-03T03:52:41.245Z,259.33
2023-03-03T03:55:09.780Z,287.60
2023-03-03T03:57:37.593Z,316.97
2023-03-03T04:00:05.872Z,305.20
2023-03-03T04:02:33.593Z,307.77
2023-03-03T04:05:01.312Z,296.50
2023-03-03T04:07:29.152Z,286.93
2023-03-03T04:09:58.101Z,285.60
2023-03-03T04:12:25.813Z,308.17
2023-03-03T04:14:53.399Z,290.90
2023-03-03T04:17:24.411Z,282.87
2023-03-03T04:19:53.892Z,280.60
2023-03-03T04:22:22.270Z,283.87
2023-03-03T04:24:50.043Z,291.80
2023-03-03T04:27:18.978Z,289.87
2023-03-03T04:29:46.543Z,296.23
2023-03-03T04:32:14.277Z,294.53
2023-03-03T04:34:42.011Z,278.73
2023-03-03T04:37:09.625Z,276.53
2023-03-03T04:39:37.955Z,269.50
2023-03-03T04:42:05.873Z,260.33
2023-03-03T04:44:34.847Z,234.83
2023-03-03T04:47:02.666Z,228.50
2023-03-03T04:49:30.294Z,209.00
2023-03-03T04:51:58.197Z,185.80
2023-03-03T04:54:25.837Z,188.17
2023-03-03T04:56:53.509Z,160.33
2023-03-03T04:59:21.126Z,150.10
2023-03-03T05:01:51.068Z,139.90
2023-03-03T05:04:18.814Z,129.50
2023-03-03T05:06:46.490Z,122.30
2023-03-03T05:09:14.154Z,120.50
2023-03-03T05:11:41.833Z,124.07
2023-03-03T05:14:09.492Z,115.57
2023-03-03T05:16:37.791Z,156.83
2023-03-03T05:19:06.886Z,404.83
2023-03-03T05:21:35.677Z,152.50
2023-03-03T05:24:04.673Z,235.43
2023-03-03T05:26:32.362Z,219.03
2023-03-03T05:28:59.950Z,307.63
2023-03-03T05:31:27.816Z,113.90
2023-03-03T05:33:55.608Z,279.10
2023-03-03T05:36:24.694Z,261.47
2023-03-03T05:38:52.742Z,371.50
2023-03-03T05:41:20.529Z,107.60
2023-03-03T05:43:48.213Z,201.00
2023-03-03T05:46:16.067Z,194.47
2023-03-03T05:48:43.880Z,229.67
2023-03-03T05:51:11.571Z,159.33
2023-03-03T05:53:40.662Z,149.60
2023-03-03T05:56:08.702Z,166.13
2023-03-03T05:58:37.201Z,168.63
2023-03-03T06:01:05.175Z,186.17
2023-03-03T06:03:33.356Z,189.23
2023-03-03T06:06:00.978Z,191.63
2023-03-03T06:08:29.570Z,183.57
2023-03-03T06:10:58.684Z,177.23
2023-03-03T06:13:26.322Z,170.93
2023-03-03T06:15:53.928Z,166.13
2023-03-03T06:18:21.624Z,178.27
2023-03-03T06:20:52.966Z,182.00
2023-03-03T06:23:20.714Z,191.53
2023-03-03T06:25:48.467Z,206.33
2023-03-03T06:28:17.447Z,203.63
2023-03-03T06:30:45.025Z,209.50
2023-03-03T06:33:12.829Z,208.97
2023-03-03T06:35:40.497Z,228.63
2023-03-03T06:38:08.127Z,235.43
2023-03-03T06:40:35.798Z,243.33
2023-03-03T06:43:04.247Z,248.53
2023-03-03T06:45:33.257Z,244.57
2023-03-03T06:48:00.885Z,257.90
2023-03-03T06:50:28.921Z,252.77
2023-03-03T06:53:03.986Z,254.67
2023-03-03T06:55:31.966Z,257.30
2023-03-03T06:58:00.537Z,271.10
2023-03-03T07:00:31.140Z,258.90
2023-03-03T07:03:03.514Z,264.73
2023-03-03T07:05:31.217Z,256.60
2023-03-03T07:07:59.199Z,254.73
2023-03-03T07:10:28.662Z,257.10
2023-03-03T07:13:03.600Z,265.00
2023-03-03T07:15:35.156Z,260.00
2023-03-03T07:18:09.617Z,265.07
2023-03-03T07:20:41.180Z,263.90
2023-03-03T07:23:20.760Z,267.93
2023-03-03T07:25:48.565Z,267.30
2023-03-03T07:28:23.623Z,264.93
2023-03-03T07:30:52.109Z,262.37
2023-03-03T07:33:27.554Z,271.00
2023-03-03T07:35:57.399Z,281.03
2023-03-03T07:38:31.743Z,266.97
2023-03-03T07:41:01.972Z,272.13
2023-03-03T07:43:37.396Z,255.47
2023-03-03T07:46:22.854Z,257.50
2023-03-03T07:48:53.468Z,261.30
2023-03-03T07:51:25.263Z,249.53
2023-03-03T07:53:54.117Z,250.07
2023-03-03T07:56:30.523Z,240.97
2023-03-03T07:58:59.400Z,235.57
2023-03-03T08:01:39.682Z,232.03
2023-03-03T08:04:19.312Z,226.10
2023-03-03T08:06:50.388Z,221.10
2023-03-03T08:09:35.456Z,218.90
2023-03-03T08:12:19.497Z,204.17
2023-03-03T08:14:48.240Z,214.23
2023-03-03T08:17:22.045Z,204.90
2023-03-03T08:19:52.175Z,201.50
2023-03-03T08:22:25.874Z,197.23
2023-03-03T08:24:53.578Z,195.10
2023-03-03T08:27:21.223Z,195.33
2023-03-03T08:29:50.050Z,185.73
2023-03-03T08:32:17.771Z,185.30
2023-03-03T08:34:45.422Z,178.37
2023-03-03T08:37:14.432Z,173.70
2023-03-03T08:39:42.966Z,171.30
2023-03-03T08:42:10.639Z,157.63
2023-03-03T08:44:38.304Z,148.07
2023-03-03T08:47:05.961Z,146.87
2023-03-03T08:49:33.576Z,126.67
2023-03-03T08:52:01.578Z,115.83
2023-03-03T08:54:30.832Z,112.43
2023-03-03T08:56:58.465Z,90.20
2023-03-03T08:59:26.126Z,92.00
2023-03-03T09:01:53.782Z,83.03
2023-03-03T09:04:21.488Z,80.23
2023-03-03T09:06:49.546Z,80.30
2023-03-03T09:09:17.174Z,74.33
2023-03-03T09:11:47.180Z,70.40
2023-03-03T09:14:16.635Z,72.77
2023-03-03T09:16:49.213Z,73.20
2023-03-03T09:19:26.084Z,77.07
2023-03-03T09:21:55.656Z,78.33
2023-03-03T09:24:27.609Z,75.30
2023-03-03T09:26:58.793Z,79.13
2023-03-03T09:29:29.032Z,79.10
2023-03-03T09:31:59.015Z,78.77
2023-03-03T09:34:36.497Z,77.57
2023-03-03T09:37:19.590Z,82.00
2023-03-03T09:39:50.734Z,84.03
2023-03-03T09:42:38.733Z,82.83
2023-03-03T09:45:49.969Z,83.70
2023-03-03T09:48:41.369Z,80.40
2023-03-03T09:51:20.760Z,81.80
2023-03-03T09:54:01.575Z,82.80
2023-03-03T09:56:35.279Z,80.27
2023-03-03T09:59:19.056Z,82.30
2023-03-03T10:01:58.880Z,79.83
2023-03-03T10:04:44.612Z,83.73
2023-03-03T10:07:39.806Z,79.53
2023-03-03T10:10:30.839Z,85.27
2023-03-03T10:13:10.912Z,79.13
2023-03-03T10:15:49.077Z,79.87
2023-03-03T10:18:32.233Z,83.30
2023-03-03T10:21:09.151Z,82.90
2023-03-03T10:23:58.458Z,83.47
2023-03-03T10:26:46.423Z,82.60
2023-03-03T10:29:34.090Z,86.23
2023-03-03T10:32:30.768Z,86.87
2023-03-03T10:35:19.798Z,84.60
2023-03-03T10:38:00.342Z,89.37
2023-03-03T10:40:35.958Z,80.90
2023-03-03T10:43:32.253Z,76.30
2023-03-03T10:46:28.208Z,64.03
2023-03-03T10:49:14.723Z,65.43
2023-03-03T10:51:53.588Z,64.70
2023-03-03T10:54:31.396Z,63.30
2023-03-03T10:57:05.126Z,60.80
2023-03-03T10:59:49.272Z,60.63
2023-03-03T11:02:22.870Z,59.83
2023-03-03T11:05:04.364Z,58.80
2023-03-03T11:07:37.960Z,60.50
2023-03-03T11:10:21.039Z,61.20
2023-03-03T11:12:59.727Z,57.50
2023-03-03T11:15:41.102Z,53.80
2023-03-03T11:18:26.278Z,55.20
2023-03-03T11:21:01.816Z,52.07
2023-03-03T11:23:55.238Z,49.93
2023-03-03T11:26:35.617Z,50.27
2023-03-03T11:29:13.412Z,44.50
2023-03-03T11:31:49.241Z,43.87
2023-03-03T11:34:30.349Z,41.03
2023-03-03T11:37:05.076Z,40.40
2023-03-03T11:39:34.155Z,40.27
2023-03-03T11:42:13.054Z,35.80
2023-03-03T11:44:45.828Z,35.20
2023-03-03T11:47:21.038Z,35.03
2023-03-03T11:49:52.145Z,32.57
2023-03-03T11:52:33.183Z,31.50
2023-03-03T11:55:05.178Z,31.80
2023-03-03T11:57:38.788Z,33.07
2023-03-03T12:00:25.117Z,33.40
2023-03-03T12:03:31.819Z,32.93
2023-03-03T12:06:23.499Z,33.37
2023-03-03T12:09:23.643Z,33.00
2023-03-03T12:11:56.077Z,30.63
2023-03-03T12:14:36.140Z,30.40
2023-03-03T12:17:07.848Z,27.67
2023-03-03T12:19:48.952Z,27.20
2023-03-03T12:22:26.492Z,27.80
2023-03-03T12:25:11.742Z,27.70
2023-03-03T12:27:46.276Z,29.10
2023-03-03T12:30:26.007Z,29.20
2023-03-03T12:33:08.606Z,26.67
2023-03-03T12:35:43.007Z,28.43
2023-03-03T12:38:23.064Z,28.87
2023-03-03T12:41:00.290Z,28.43
2023-03-03T12:43:44.031Z,27.70
2023-03-03T12:46:20.722Z,27.17
2023-03-03T12:48:49.215Z,27.10
2023-03-03T12:51:31.129Z,24.47
2023-03-03T12:54:15.716Z,24.67
2023-03-03T12:56:49.899Z,26.73
2023-03-03T12:59:26.126Z,25.10
2023-03-03T13:02:29.718Z,24.53
2023-03-03T13:05:03.329Z,25.83
2023-03-03T13:07:38.911Z,26.40
2023-03-03T13:10:17.701Z,27.30
2023-03-03T13:12:52.150Z,26.83
2023-03-03T13:15:36.284Z,25.67
2023-03-03T13:18:20.651Z,26.57
2023-03-03T13:20:55.314Z,27.60
2023-03-03T13:23:38.184Z,32.10
2023-03-03T13:26:11.740Z,37.93
2023-03-03T13:28:51.134Z,28.23
2023-03-03T13:31:21.772Z,26.47
2023-03-03T13:33:55.791Z,26.63
2023-03-03T13:36:31.456Z,24.07
2023-03-03T13:39:05.724Z,24.77
2023-03-03T13:41:42.543Z,25.30
2023-03-03T13:44:18.012Z,26.47
2023-03-03T13:46:57.130Z,24.33
2023-03-03T13:49:36.271Z,23.40
2023-03-03T13:52:08.390Z,22.90
2023-03-03T13:54:49.216Z,23.80
2023-03-03T13:57:28.469Z,23.23
2023-03-03T14:00:07.997Z,21.73
2023-03-03T14:02:58.599Z,23.33
2023-03-03T14:05:32.269Z,24.00
2023-03-03T14:08:04.981Z,23.70
2023-03-03T14:10:34.221Z,24.17
2023-03-03T14:13:06.445Z,24.07
2023-03-03T14:15:39.600Z,25.80
2023-03-03T14:18:22.388Z,23.43
2023-03-03T14:20:53.543Z,25.43
2023-03-03T14:23:26.158Z,25.10
2023-03-03T14:25:59.997Z,24.57
2023-03-03T14:28:29.749Z,24.67
2023-03-03T14:31:01.136Z,24.00
2023-03-03T14:33:32.400Z,29.70
2023-03-03T14:36:12.106Z,25.13
2023-03-03T14:38:44.407Z,26.13
2023-03-03T14:41:21.768Z,23.80
2023-03-03T14:44:01.080Z,24.47
2023-03-03T14:46:40.225Z,28.03
2023-03-03T14:49:16.470Z,26.70
2023-03-03T14:51:46.701Z,25.80
2023-03-03T14:54:25.840Z,25.37
2023-03-03T14:57:00.253Z,23.90
2023-03-03T14:59:29.515Z,31.37
2023-03-03T15:02:29.619Z,23.30
2023-03-03T15:05:15.732Z,24.60
2023-03-03T15:07:44.029Z,38.33
2023-03-03T15:10:13.428Z,24.07
2023-03-03T15:12:43.114Z,25.57
2023-03-03T15:15:19.559Z,26.80
2023-03-03T15:18:02.506Z,26.97
2023-03-03T15:20:43.105Z,29.17
2023-03-03T15:23:34.904Z,27.50
2023-03-03T15:26:09.627Z,27.10
2023-03-03T15:28:52.710Z,28.70
2023-03-03T15:31:32.463Z,35.20
2023-03-03T15:34:23.917Z,29.30
2023-03-03T15:36:58.115Z,30.40
2023-03-03T15:39:36.589Z,28.93
2023-03-03T15:42:06.991Z,31.50
2023-03-03T15:44:49.812Z,41.20
2023-03-03T15:47:36.485Z,29.33
2023-03-03T15:50:25.368Z,35.70
2023-03-03T15:53:03.086Z,32.07
2023-03-03T15:55:44.150Z,31.27
2023-03-03T15:58:34.274Z,29.47
2023-03-03T16:01:11.159Z,29.87
2023-03-03T16:03:46.418Z,33.83
2023-03-03T16:06:20.424Z,31.27
2023-03-03T16:08:59.606Z,35.93
2023-03-03T16:11:35.228Z,34.23
2023-03-03T16:14:19.566Z,36.57
2023-03-03T16:16:52.824Z,36.20
2023-03-03T16:19:30.664Z,37.47
2023-03-03T16:22:16.173Z,34.77
2023-03-03T16:24:58.680Z,43.93
2023-03-03T16:27:33.319Z,35.90
2023-03-03T16:30:12.720Z,34.37
2023-03-03T16:32:44.915Z,42.30
2023-03-03T16:35:24.293Z,33.97
2023-03-03T16:37:59.625Z,36.27
2023-03-03T16:40:31.369Z,38.10
2023-03-03T16:43:09.175Z,45.57
2023-03-03T16:45:39.521Z,37.33
2023-03-03T16:48:20.852Z,37.13
2023-03-03T16:50:58.926Z,40.10
2023-03-03T16:53:44.244Z,35.70
2023-03-03T16:56:17.034Z,35.90
2023-03-03T16:59:05.869Z,36.30
2023-03-03T17:01:41.976Z,37.60
2023-03-03T17:04:15.374Z,38.57
2023-03-03T17:06:50.176Z,38.30
2023-03-03T17:09:36.296Z,41.50
2023-03-03T17:12:18.379Z,40.83
2023-03-03T17:15:16.283Z,40.60
2023-03-03T17:17:48.698Z,39.20
2023-03-03T17:20:32.069Z,43.23
2023-03-03T17:23:16.265Z,44.30
2023-03-03T17:25:54.031Z,42.80
2023-03-03T17:28:35.774Z,45.47
2023-03-03T17:31:11.409Z,43.20
2023-03-03T17:34:04.622Z,45.60
2023-03-03T17:36:49.846Z,43.70
2023-03-03T17:39:39.766Z,43.40
2023-03-03T17:42:18.826Z,44.20
2023-03-03T17:44:57.229Z,47.07
2023-03-03T17:47:36.890Z,47.60
2023-03-03T17:50:18.218Z,47.97
2023-03-03T17:53:02.438Z,44.67
2023-03-03T17:55:54.790Z,59.03
2023-03-03T17:58:54.749Z,44.40
2023-03-03T18:01:31.262Z,47.70
2023-03-03T18:04:27.632Z,47.23
2023-03-03T18:07:22.450Z,49.30
2023-03-03T18:10:22.696Z,47.37
2023-03-03T18:13:00.050Z,49.00
2023-03-03T18:15:40.331Z,47.30
2023-03-03T18:18:26.085Z,50.20
2023-03-03T18:21:04.634Z,52.53
2023-03-03T18:23:39.780Z,51.80
2023-03-03T18:26:37.845Z,49.03
2023-03-03T18:29:22.617Z,48.87
2023-03-03T18:32:20.783Z,50.27
2023-03-03T18:34:48.507Z,59.37
2023-03-03T18:37:37.448Z,48.17
2023-03-03T18:40:35.785Z,50.63
2023-03-03T18:43:36.883Z,48.47
2023-03-03T18:46:04.711Z,54.90
2023-03-03T18:48:49.730Z,55.20
2023-03-03T18:52:13.710Z,53.37
2023-03-03T18:54:41.421Z,54.57
2023-03-03T18:57:18.458Z,59.43
2023-03-03T18:59:58.618Z,56.60
2023-03-03T19:02:36.058Z,57.00
2023-03-03T19:05:20.751Z,55.57
2023-03-03T19:07:53.122Z,54.83
2023-03-03T19:10:54.855Z,59.40
2023-03-03T19:13:44.569Z,56.17
2023-03-03T19:16:28.858Z,56.77
2023-03-03T19:19:02.952Z,54.67
2023-03-03T19:21:34.710Z,55.00
2023-03-03T19:24:04.649Z,57.93
2023-03-03T19:26:57.010Z,54.63
2023-03-03T19:30:01.583Z,53.20
2023-03-03T19:32:44.124Z,57.10
2023-03-03T19:35:26.926Z,56.93
2023-03-03T19:38:04.710Z,57.77
2023-03-03T19:40:38.224Z,59.87
2023-03-03T19:43:17.433Z,55.03
2023-03-03T19:45:58.157Z,59.73
2023-03-03T19:48:34.652Z,62.27
2023-03-03T19:51:14.360Z,58.60
2023-03-03T19:53:53.708Z,58.60
2023-03-03T19:56:29.690Z,58.63
2023-03-03T19:59:08.054Z,64.17
2023-03-03T20:01:48.894Z,61.27
2023-03-03T20:04:50.617Z,64.57
2023-03-03T20:07:29.858Z,64.73
2023-03-03T20:10:08.266Z,60.93
2023-03-03T20:13:00.129Z,65.87
2023-03-03T20:15:33.439Z,64.50
2023-03-03T20:18:23.458Z,68.23
2023-03-03T20:21:02.471Z,66.47
2023-03-03T20:23:39.215Z,64.70
2023-03-03T20:26:15.995Z,68.33
2023-03-03T20:29:03.723Z,67.53
2023-03-03T20:31:39.204Z,68.63
2023-03-03T20:34:14.896Z,68.63
2023-03-03T20:36:54.871Z,65.73
2023-03-03T20:39:39.312Z,64.77
2023-03-03T20:42:19.082Z,67.90
2023-03-03T20:45:01.766Z,69.37
2023-03-03T20:47:41.523Z,66.30
2023-03-03T20:50:18.891Z,75.27
2023-03-03T20:52:57.099Z,63.13
2023-03-03T20:55:32.472Z,62.47
2023-03-03T20:58:07.569Z,68.80
2023-03-03T21:00:43.546Z,68.70
2023-03-03T21:03:21.123Z,64.43
2023-03-03T21:05:58.630Z,63.87
2023-03-03T21:08:46.458Z,68.30
2023-03-03T21:11:14.984Z,69.00
2023-03-03T21:13:45.387Z,67.30
2023-03-03T21:16:28.991Z,71.50
2023-03-03T21:18:58.248Z,65.70
2023-03-03T21:21:26.606Z,68.70
2023-03-03T21:23:54.322Z,60.30
2023-03-03T21:26:51.274Z,63.73
2023-03-03T21:29:23.137Z,63.33
2023-03-03T21:31:52.145Z,63.57
2023-03-03T21:34:31.028Z,61.20
2023-03-03T21:37:00.043Z,60.97
2023-03-03T21:39:30.686Z,59.17
2023-03-03T21:42:01.797Z,60.33
2023-03-03T21:44:36.417Z,60.07
2023-03-03T21:47:04.795Z,57.93
2023-03-03T21:49:32.554Z,62.50
2023-03-03T21:52:00.755Z,59.07
2023-03-03T21:54:29.314Z,55.80
2023-03-03T21:56:56.918Z,58.20
2023-03-03T21:59:24.788Z,59.23
2023-03-03T22:01:53.786Z,56.07
2023-03-03T22:04:21.364Z,56.30
2023-03-03T22:06:48.967Z,52.43
2023-03-03T22:09:16.601Z,50.20
2023-03-03T22:11:44.324Z,50.03
2023-03-03T22:14:12.209Z,49.13
2023-03-03T22:16:40.191Z,48.33
2023-03-03T22:19:10.161Z,46.50
2023-03-03T22:21:38.835Z,48.00
2023-03-03T22:24:07.305Z,49.00
2023-03-03T22:26:35.152Z,49.30
2023-03-03T22:29:02.879Z,47.63
2023-03-03T22:31:30.522Z,49.77
2023-03-03T22:33:58.644Z,52.70
2023-03-03T22:36:27.803Z,48.77
2023-03-03T22:38:55.438Z,49.33
2023-03-03T22:41:23.023Z,51.17
2023-03-03T22:43:50.743Z,46.40
2023-03-03T22:46:18.456Z,47.57
2023-03-03T22:48:46.175Z,48.33
2023-03-03T22:51:13.764Z,45.83
2023-03-03T22:53:42.766Z,47.30
2023-03-03T22:56:10.462Z,47.13
2023-03-03T22:58:38.075Z,46.27
2023-03-03T23:01:06.083Z,46.53
2023-03-03T23:03:34.079Z,46.20
2023-03-03T23:06:01.754Z,43.40
2023-03-03T23:08:29.360Z,42.77
2023-03-03T23:10:58.492Z,44.17
2023-03-03T23:13:27.052Z,42.70
2023-03-03T23:15:58.405Z,44.47
2023-03-03T23:18:26.162Z,45.20
2023-03-03T23:20:53.740Z,44.83
2023-03-03T23:23:21.342Z,44.60
2023-03-03T23:25:49.386Z,43.63
2023-03-03T23:28:19.248Z,45.37
2023-03-03T23:30:46.880Z,43.87
2023-03-03T23:33:14.716Z,45.77
2023-03-03T23:35:42.577Z,44.00
2023-03-03T23:38:15.183Z,43.73
2023-03-03T23:40:43.127Z,44.07
2023-03-03T23:43:11.330Z,45.50
2023-03-03T23:45:40.830Z,45.73
2023-03-03T23:48:08.642Z,45.37
2023-03-03T23:50:37.168Z,46.07
2023-03-03T23:53:05.367Z,44.90
2023-03-03T23:55:33.003Z,45.27
2023-03-03T23:58:00.601Z,45.67
